Terminal Aerodrome Forecast
Issued by NWS

Current Version | Previous Version | Graphics & Text | Print | Product List | Glossary On
Versions: 1 2 3 4 5 6 7 8 9 10 11 12 13 14 15 16 17 18 19 20 21 22 23
219
FTUS41 KILN 200546
TAFLUK
TAF
KLUK 200546Z 2006/2106 VRB03KT P6SM SCT250
     FM201200 17006KT P6SM VCSH BKN060
     FM201400 17006KT 6SM -SHRA VCTS OVC050CB
     FM201700 18009KT P6SM BKN070
     FM210000 20006KT P6SM VCSH OVC040
     FM210300 29005KT P6SM VCSH OVC020=

USA.gov is the U.S. government's official web portal to all federal, state and local government web resources and services.